Time;durP1;ratioP1;P1;durP2;ratioP2;P2;SDS_P1;SDS_P2;PMS_P1;PMS_P2;Temp;Humidity;BMP_temperature;BMP_pressure;BME280_temperature;BME280_humidity;BME280_pressure;Samples;Min_cycle;Max_cycle;Signal;HPM_P1;HPM_P2
2023/12/26 00:00:34;;;;;;;1.38;1.27;;;;;;;11.65;100.00;100395.59;3610623;39;20417;-65
2023/12/26 00:03:02;;;;;;;2.70;1.20;;;;;;;11.59;100.00;100396.03;3608675;39;20063;-65
2023/12/26 00:05:28;;;;;;;2.17;1.33;;;;;;;11.60;100.00;100398.59;3610508;39;20060;-66
2023/12/26 00:07:54;;;;;;;2.38;1.35;;;;;;;11.57;100.00;100398.84;3608486;39;20061;-65
2023/12/26 00:10:19;;;;;;;3.35;1.20;;;;;;;11.55;100.00;100389.19;3608745;39;20047;-65
2023/12/26 00:12:45;;;;;;;2.10;1.30;;;;;;;11.52;100.00;100390.25;3608724;39;20051;-65
2023/12/26 00:15:11;;;;;;;1.23;0.95;;;;;;;11.51;100.00;100390.34;3610339;39;20059;-66
2023/12/26 00:17:36;;;;;;;1.55;1.45;;;;;;;11.48;100.00;100399.53;3608782;39;20143;-65
2023/12/26 00:20:04;;;;;;;2.83;1.30;;;;;;;11.45;100.00;100385.41;3612589;39;20299;-65
2023/12/26 00:22:30;;;;;;;3.65;1.67;;;;;;;11.45;100.00;100398.88;3607149;39;20070;-65
2023/12/26 00:24:56;;;;;;;3.30;1.33;;;;;;;11.41;100.00;100392.00;3609967;39;20063;-66
2023/12/26 00:27:22;;;;;;;1.25;1.15;;;;;;;11.37;100.00;100386.84;3609680;39;20049;-65
2023/12/26 00:29:48;;;;;;;3.17;1.10;;;;;;;11.37;100.00;100388.66;3607981;39;20078;-65
2023/12/26 00:32:15;;;;;;;2.00;1.35;;;;;;;11.27;100.00;100368.78;3604687;39;20055;-65
2023/12/26 00:34:40;;;;;;;2.35;1.20;;;;;;;11.35;100.00;100395.97;3605421;39;20062;-65
2023/12/26 00:37:07;;;;;;;2.72;1.48;;;;;;;11.34;100.00;100386.19;3605433;39;20063;-65
2023/12/26 00:39:34;;;;;;;5.82;1.13;;;;;;;11.30;100.00;100374.78;3604671;39;20055;-65
2023/12/26 00:42:00;;;;;;;1.30;0.90;;;;;;;11.34;100.00;100389.75;3605495;39;20365;-66
2023/12/26 00:44:25;;;;;;;1.58;0.90;;;;;;;11.36;100.00;100382.44;3604210;39;20051;-66
2023/12/26 00:46:51;;;;;;;1.92;1.30;;;;;;;11.31;100.00;100392.66;3606638;39;20055;-65
2023/12/26 00:49:17;;;;;;;1.92;1.10;;;;;;;11.32;100.00;100393.50;3604522;39;20083;-65
2023/12/26 00:51:42;;;;;;;3.47;1.42;;;;;;;11.31;100.00;100398.03;3606127;39;20058;-65
2023/12/26 00:54:08;;;;;;;1.38;1.17;;;;;;;11.30;100.00;100406.22;3605095;39;20051;-65
2023/12/26 00:56:34;;;;;;;2.75;1.20;;;;;;;11.28;100.00;100392.88;3604432;39;20058;-65
2023/12/26 00:59:00;;;;;;;2.33;1.13;;;;;;;11.27;100.00;100415.38;3605147;39;20342;-65
2023/12/26 01:01:25;;;;;;;2.38;1.27;;;;;;;11.28;100.00;100419.78;3604522;39;20069;-65
2023/12/26 01:03:51;;;;;;;1.98;1.10;;;;;;;11.30;100.00;100414.31;3605401;39;20303;-65
2023/12/26 01:06:17;;;;;;;2.10;1.10;;;;;;;11.30;100.00;100411.63;3604273;39;20291;-66
2023/12/26 01:08:42;;;;;;;2.80;1.10;;;;;;;11.28;100.00;100417.09;3603844;39;20452;-65
2023/12/26 01:11:08;;;;;;;2.25;1.20;;;;;;;11.29;100.00;100424.22;3599780;39;20090;-65
2023/12/26 01:13:36;;;;;;;1.00;0.90;;;;;;;11.29;100.00;100415.25;3604220;39;20066;-65
2023/12/26 01:16:04;;;;;;;3.40;0.90;;;;;;;11.29;100.00;100426.91;3605529;39;20087;-65
2023/12/26 01:18:31;;;;;;;1.42;0.80;;;;;;;11.28;100.00;100419.78;3604517;39;20075;-66
2023/12/26 01:20:58;;;;;;;0.95;0.80;;;;;;;11.29;100.00;100421.53;3605478;39;20055;-66
2023/12/26 01:23:24;;;;;;;1.10;0.90;;;;;;;11.28;100.00;100422.47;3605647;39;20257;-65
2023/12/26 01:25:50;;;;;;;0.90;0.90;;;;;;;11.27;100.00;100417.22;3606544;39;20054;-65
2023/12/26 01:28:15;;;;;;;1.33;0.90;;;;;;;11.27;100.00;100420.75;3607307;39;20295;-65
2023/12/26 01:30:42;;;;;;;1.58;0.80;;;;;;;11.26;100.00;100421.75;3608166;39;20136;-65
2023/12/26 01:33:08;;;;;;;0.90;0.70;;;;;;;11.27;100.00;100431.53;3604668;39;20055;-66
2023/12/26 01:35:34;;;;;;;3.90;0.80;;;;;;;11.27;100.00;100434.22;3605185;39;20367;-66
2023/12/26 01:38:00;;;;;;;1.30;0.90;;;;;;;11.24;100.00;100429.03;3606550;39;20059;-66
2023/12/26 01:40:25;;;;;;;0.70;0.70;;;;;;;11.27;100.00;100447.66;3604598;39;20055;-66
2023/12/26 01:42:51;;;;;;;0.90;0.90;;;;;;;11.24;100.00;100455.09;3606375;39;20292;-66
2023/12/26 01:45:17;;;;;;;1.35;1.25;;;;;;;11.27;100.00;100438.75;3606227;39;20043;-67
2023/12/26 01:48:11;;;;;;;1.20;1.20;;;;;;;11.25;100.00;100437.97;3606063;39;20062;-66
2023/12/26 01:50:38;;;;;;;1.17;1.17;;;;;;;11.27;100.00;100454.88;3604910;39;20047;-66
2023/12/26 01:53:04;;;;;;;1.65;1.30;;;;;;;11.26;100.00;100448.66;3605565;39;20121;-66
2023/12/26 01:55:31;;;;;;;1.58;1.50;;;;;;;11.25;100.00;100454.97;3607278;39;20067;-66
2023/12/26 01:57:58;;;;;;;1.85;1.27;;;;;;;11.24;100.00;100455.09;3607942;39;20050;-66
2023/12/26 02:00:24;;;;;;;1.75;1.10;;;;;;;11.30;100.00;100449.28;3607267;39;20055;-66
2023/12/26 02:02:52;;;;;;;1.15;1.05;;;;;;;11.27;100.00;100454.88;3607165;39;20099;-66
2023/12/26 02:05:18;;;;;;;1.30;1.30;;;;;;;11.27;100.00;100462.94;3605873;39;20049;-65
2023/12/26 02:07:44;;;;;;;1.23;1.23;;;;;;;11.27;100.00;100460.25;3608769;39;20051;-66
2023/12/26 02:10:10;;;;;;;2.13;1.40;;;;;;;11.10;100.00;100442.59;3606329;39;20127;-65
2023/12/26 02:12:35;;;;;;;1.65;1.58;;;;;;;11.26;100.00;100467.47;3609913;39;20073;-65
2023/12/26 02:15:03;;;;;;;2.35;1.75;;;;;;;11.26;100.00;100471.97;3606479;39;20057;-65
2023/12/26 02:17:30;;;;;;;1.70;1.60;;;;;;;11.27;100.00;100471.03;3606134;39;20087;-65
2023/12/26 02:19:56;;;;;;;2.47;1.75;;;;;;;11.27;100.00;100471.88;3606831;39;20157;-64
2023/12/26 02:22:22;;;;;;;1.85;1.75;;;;;;;11.26;100.00;100464.78;3605171;39;20086;-65
2023/12/26 02:24:48;;;;;;;2.10;1.90;;;;;;;11.28;100.00;100468.22;3606810;39;20379;-66
2023/12/26 02:27:29;;;;;;;1.90;1.80;;;;;;;11.20;100.00;100467.91;3607181;39;20055;-66
2023/12/26 02:29:57;;;;;;;2.00;1.80;;;;;;;11.31;100.00;100489.53;3609341;39;20102;-66
2023/12/26 02:32:28;;;;;;;2.45;2.00;;;;;;;11.28;100.00;100481.66;3605920;39;20055;-65
2023/12/26 02:34:55;;;;;;;2.35;1.60;;;;;;;11.28;100.00;100478.97;3606566;39;20089;-65
2023/12/26 02:37:23;;;;;;;2.20;1.60;;;;;;;11.30;100.00;100481.56;3605622;39;20051;-66
2023/12/26 02:39:50;;;;;;;1.40;1.30;;;;;;;11.30;100.00;100477.03;3606508;39;20098;-65
2023/12/26 02:42:19;;;;;;;1.55;1.45;;;;;;;11.28;100.00;100473.59;3608031;39;20055;-65
2023/12/26 02:44:45;;;;;;;2.55;1.65;;;;;;;11.28;100.00;100475.44;3607063;39;20051;-65
2023/12/26 02:47:11;;;;;;;1.50;1.40;;;;;;;10.64;100.00;100383.97;3605998;39;20120;-65
2023/12/26 02:49:36;;;;;;;1.00;1.00;;;;;;;11.28;100.00;100478.97;3605822;39;20411;-65
2023/12/26 02:52:03;;;;;;;1.90;1.05;;;;;;;11.29;100.00;100474.44;3605116;39;20063;-65
2023/12/26 02:54:28;;;;;;;3.53;1.20;;;;;;;11.31;100.00;100483.28;3598020;39;20369;-65
2023/12/26 02:56:54;;;;;;;1.35;1.25;;;;;;;11.28;100.00;100470.91;3606363;39;20131;-65
2023/12/26 02:59:20;;;;;;;2.63;1.60;;;;;;;11.23;100.00;100475.75;3605012;39;20043;-64
2023/12/26 03:01:46;;;;;;;2.00;1.90;;;;;;;11.28;100.00;100488.88;3607243;39;20055;-65
2023/12/26 03:04:13;;;;;;;2.00;1.90;;;;;;;11.28;100.00;100481.66;3607318;39;20059;-65
2023/12/26 03:06:38;;;;;;;2.20;1.98;;;;;;;11.25;100.00;100487.25;3606719;39;20055;-65
2023/12/26 03:09:05;;;;;;;2.15;2.03;;;;;;;11.28;100.00;100500.50;3608069;39;20375;-65
2023/12/26 03:11:30;;;;;;;2.50;2.30;;;;;;;11.22;100.00;100500.94;3606101;39;20079;-65
2023/12/26 03:13:58;;;;;;;2.80;2.42;;;;;;;10.67;100.00;100416.88;3608526;39;20328;-64
2023/12/26 03:16:24;;;;;;;2.40;2.30;;;;;;;11.30;100.00;100509.34;3611192;39;20050;-65
2023/12/26 03:18:49;;;;;;;2.60;2.40;;;;;;;11.31;100.00;100527.19;3608323;39;20372;-65
2023/12/26 03:21:15;;;;;;;2.67;2.40;;;;;;;11.04;100.00;100480.72;3607665;39;20469;-65
2023/12/26 03:23:41;;;;;;;2.58;2.15;;;;;;;11.25;100.00;100511.47;3608972;39;20099;-65
2023/12/26 03:26:09;;;;;;;2.88;2.60;;;;;;;10.51;100.00;100400.09;3607925;39;20071;-65
2023/12/26 03:28:35;;;;;;;3.75;2.53;;;;;;;11.23;100.00;100529.56;3608269;39;20066;-65
2023/12/26 03:31:08;;;;;;;3.15;2.83;;;;;;;11.22;100.00;100533.22;3607432;39;20058;-65
2023/12/26 03:33:35;;;;;;;4.97;3.37;;;;;;;11.22;100.00;100524.28;3607626;39;20073;-64
2023/12/26 03:36:02;;;;;;;7.57;3.60;;;;;;;11.19;100.00;100524.50;3607474;39;20039;-64
2023/12/26 03:38:28;;;;;;;4.03;3.53;;;;;;;11.19;100.00;100517.28;3600048;39;20039;-64
2023/12/26 03:40:55;;;;;;;5.53;3.85;;;;;;;11.17;100.00;100524.63;3609116;39;20106;-64
2023/12/26 03:43:20;;;;;;;4.18;3.38;;;;;;;11.19;100.00;100527.19;3605617;39;20044;-64
2023/12/26 03:45:46;;;;;;;4.32;3.08;;;;;;;11.19;100.00;100532.56;3608398;39;20051;-64
2023/12/26 03:48:12;;;;;;;4.45;3.15;;;;;;;11.19;100.00;100532.56;3608531;39;20067;-64
2023/12/26 03:50:39;;;;;;;4.50;2.97;;;;;;;11.12;100.00;100521.38;3606942;39;20062;-64
2023/12/26 03:53:05;;;;;;;4.80;3.10;;;;;;;11.16;100.00;100528.25;3606987;39;20371;-64
2023/12/26 03:55:30;;;;;;;3.67;2.40;;;;;;;11.18;100.00;100539.78;3605019;39;20103;-64
2023/12/26 03:57:56;;;;;;;5.05;3.22;;;;;;;11.19;100.00;100544.19;3607740;39;20410;-64
2023/12/26 04:00:22;;;;;;;5.20;2.60;;;;;;;11.23;100.00;100545.72;3609017;39;20043;-64
2023/12/26 04:02:47;;;;;;;5.53;2.88;;;;;;;11.20;100.00;100548.63;3609230;39;20058;-64
2023/12/26 04:05:13;;;;;;;4.85;2.80;;;;;;;11.21;100.00;100553.03;3610326;39;20067;-64
2023/12/26 04:07:39;;;;;;;5.22;2.53;;;;;;;11.22;100.00;100561.94;3607629;39;20062;-64
2023/12/26 04:10:06;;;;;;;7.57;2.60;;;;;;;11.21;100.00;100569.16;3607316;39;20430;-64
2023/12/26 04:12:32;;;;;;;5.10;2.47;;;;;;;11.20;100.00;100583.59;3606753;39;20055;-64
2023/12/26 04:14:58;;;;;;;6.53;2.63;;;;;;;11.22;100.00;100594.25;3605150;39;20103;-65
2023/12/26 04:17:24;;;;;;;6.18;2.58;;;;;;;11.19;100.00;100576.47;3605789;39;20058;-64
2023/12/26 04:19:49;;;;;;;7.75;2.60;;;;;;;11.23;100.00;100587.91;3606779;39;20055;-64
2023/12/26 04:22:15;;;;;;;5.97;1.90;;;;;;;11.24;100.00;100589.63;3606152;39;20426;-64
2023/12/26 04:24:41;;;;;;;9.93;2.38;;;;;;;11.26;100.00;100588.56;3596093;39;20055;-64
2023/12/26 04:27:07;;;;;;;2.95;1.48;;;;;;;11.18;100.00;100581.97;3608003;39;20410;-64
2023/12/26 04:29:33;;;;;;;6.53;1.90;;;;;;;11.27;100.00;100594.81;3606827;39;20043;-64
2023/12/26 04:31:59;;;;;;;6.47;1.80;;;;;;;11.26;100.00;100583.19;3605859;39;20058;-64
2023/12/26 04:34:25;;;;;;;7.00;2.13;;;;;;;11.26;100.00;100598.44;3606639;39;20449;-64
2023/12/26 04:36:51;;;;;;;6.50;2.13;;;;;;;11.16;100.00;100582.06;3608060;39;20047;-64
2023/12/26 04:39:17;;;;;;;7.85;1.80;;;;;;;11.23;100.00;100588.78;3607576;39;20125;-64
2023/12/26 04:41:46;;;;;;;8.63;2.10;;;;;;;11.24;99.95;100593.19;3606673;39;20071;-64
2023/12/26 04:44:12;;;;;;;6.38;1.90;;;;;;;11.25;99.68;100608.34;3606691;39;20046;-64
2023/12/26 04:46:38;;;;;;;5.55;1.83;;;;;;;11.26;99.36;100614.56;3607641;39;20059;-65
2023/12/26 04:49:04;;;;;;;5.57;1.58;;;;;;;11.24;98.45;100621.91;3608504;39;20054;-64
2023/12/26 04:51:30;;;;;;;6.65;1.60;;;;;;;11.23;98.18;100626.44;3605369;39;20043;-64
2023/12/26 04:53:56;;;;;;;7.03;1.80;;;;;;;11.22;98.08;100630.06;3608894;39;20058;-63
2023/12/26 04:56:23;;;;;;;5.82;1.50;;;;;;;11.21;97.55;100622.97;3607460;39;20043;-64
2023/12/26 04:58:51;;;;;;;5.25;1.65;;;;;;;11.15;97.45;100624.25;3609795;39;20051;-64
2023/12/26 05:01:19;;;;;;;8.15;1.42;;;;;;;11.19;96.96;100638.34;3607457;39;20051;-64
2023/12/26 05:03:46;;;;;;;7.32;1.65;;;;;;;11.10;96.24;100647.94;3609349;39;20619;-63
2023/12/26 05:06:18;;;;;;;8.00;1.73;;;;;;;11.08;95.16;100665.13;3608023;39;20047;-63
2023/12/26 05:08:44;;;;;;;8.52;1.90;;;;;;;11.03;94.86;100668.09;3607011;39;20340;-63
2023/12/26 05:11:22;;;;;;;9.63;1.80;;;;;;;10.98;95.59;100672.09;3608078;39;20058;-64
2023/12/26 05:13:48;;;;;;;9.25;1.70;;;;;;;10.98;95.05;100669.41;3608416;39;20069;-64
2023/12/26 05:16:14;;;;;;;5.93;1.90;;;;;;;10.91;94.44;100669.81;3607488;39;20065;-63
2023/12/26 05:18:39;;;;;;;7.75;1.73;;;;;;;10.92;94.18;100676.91;3606557;39;20067;-64
2023/12/26 05:21:06;;;;;;;8.07;1.60;;;;;;;10.90;93.17;100676.13;3606909;39;20059;-63
2023/12/26 05:23:31;;;;;;;7.90;1.63;;;;;;;10.86;92.59;100674.59;3607820;39;20047;-63
2023/12/26 05:25:58;;;;;;;7.15;1.70;;;;;;;10.81;92.79;100684.78;3607882;39;20054;-64
2023/12/26 05:28:24;;;;;;;8.13;2.10;;;;;;;10.75;92.76;100687.91;3609395;39;20133;-64
2023/12/26 05:30:49;;;;;;;6.72;1.60;;;;;;;10.74;92.08;100699.59;3611224;39;20067;-64
2023/12/26 05:33:15;;;;;;;7.60;1.40;;;;;;;10.70;92.31;100692.69;3612501;39;20407;-64
2023/12/26 05:35:41;;;;;;;4.97;1.30;;;;;;;10.68;91.95;100697.31;3612794;39;20055;-64
2023/12/26 05:38:06;;;;;;;6.57;1.45;;;;;;;10.67;91.75;100709.03;3610776;39;20273;-66
2023/12/26 05:40:32;;;;;;;8.45;1.83;;;;;;;10.66;90.85;100720.75;3609388;39;20066;-63
2023/12/26 05:42:58;;;;;;;6.72;1.50;;;;;;;10.62;90.28;100713.81;3610760;39;20081;-63
2023/12/26 05:45:23;;;;;;;11.38;1.83;;;;;;;10.61;89.66;100717.47;3611687;39;20067;-63
2023/12/26 05:47:49;;;;;;;5.75;1.60;;;;;;;10.59;89.53;100727.47;3608977;39;20312;-63
2023/12/26 05:50:15;;;;;;;4.47;1.60;;;;;;;10.54;89.21;100734.97;3610326;39;20058;-64
2023/12/26 05:52:40;;;;;;;5.20;1.50;;;;;;;10.50;89.05;100749.53;3607106;39;20043;-63
2023/12/26 05:55:06;;;;;;;4.10;1.35;;;;;;;10.45;88.00;100749.84;3610932;39;20310;-63
2023/12/26 05:57:32;;;;;;;6.25;1.40;;;;;;;10.42;87.47;100764.31;3608845;39;20069;-63
2023/12/26 05:59:57;;;;;;;7.13;1.50;;;;;;;10.39;87.92;100769.88;3611486;39;20062;-63
2023/12/26 06:02:23;;;;;;;9.10;1.70;;;;;;;10.35;87.69;100771.03;3610090;39;20058;-63
2023/12/26 06:04:49;;;;;;;6.55;1.48;;;;;;;10.33;86.64;100772.09;3608327;39;20430;-63
2023/12/26 06:07:14;;;;;;;7.03;1.85;;;;;;;9.68;85.90;100667.75;3602830;39;20059;-63
2023/12/26 06:09:40;;;;;;;4.97;1.13;;;;;;;10.21;86.18;100770.97;3610261;39;20311;-63
2023/12/26 06:12:06;;;;;;;10.55;1.83;;;;;;;10.25;84.34;100785.13;3611698;39;20055;-63
2023/12/26 06:14:32;;;;;;;7.50;1.92;;;;;;;10.21;82.67;100770.97;3609981;39;20090;-64
2023/12/26 06:16:59;;;;;;;5.15;1.42;;;;;;;10.18;82.72;100787.28;3609353;39;20065;-64
2023/12/26 06:19:25;;;;;;;5.20;1.45;;;;;;;10.14;81.44;100797.34;3611006;39;20062;-64
2023/12/26 06:21:50;;;;;;;6.25;1.33;;;;;;;10.10;81.31;100805.72;3608180;39;20093;-64
2023/12/26 06:24:16;;;;;;;7.10;1.60;;;;;;;10.04;80.66;100806.06;3612540;39;20415;-64
2023/12/26 06:26:42;;;;;;;4.88;1.50;;;;;;;9.99;80.66;100820.66;3611087;39;20092;-64
2023/12/26 06:29:07;;;;;;;6.63;1.38;;;;;;;9.95;80.48;100832.50;3611549;39;20098;-64
2023/12/26 06:31:33;;;;;;;5.40;1.48;;;;;;;9.92;80.23;100840.75;3610505;39;20061;-64
2023/12/26 06:33:58;;;;;;;6.25;1.20;;;;;;;9.89;81.15;100850.81;3609847;39;20406;-64
2023/12/26 06:36:27;;;;;;;7.88;1.85;;;;;;;9.84;80.94;100853.78;3611061;39;20059;-63
2023/12/26 06:38:56;;;;;;;6.70;1.23;;;;;;;9.80;81.42;100845.97;3610376;39;20058;-64
2023/12/26 06:41:21;;;;;;;10.32;2.08;;;;;;;9.77;82.00;100849.72;3610812;39;20054;-64
2023/12/26 06:43:47;;;;;;;6.13;1.50;;;;;;;9.74;82.51;100848.06;3609343;39;20070;-64
2023/12/26 06:46:12;;;;;;;8.57;1.85;;;;;;;9.70;83.17;100835.75;3612010;39;20050;-64
2023/12/26 06:48:38;;;;;;;10.18;1.80;;;;;;;9.67;83.30;100844.03;3611255;39;20339;-64
2023/12/26 06:51:05;;;;;;;12.02;2.10;;;;;;;9.64;83.87;100837.94;3607323;39;20311;-64
2023/12/26 06:53:30;;;;;;;7.53;1.70;;;;;;;9.51;83.71;100827.94;3609036;39;20075;-64
2023/12/26 06:55:56;;;;;;;9.20;1.50;;;;;;;9.59;84.47;100853.47;3609107;39;20058;-64
2023/12/26 06:58:22;;;;;;;7.28;1.67;;;;;;;9.56;84.81;100853.63;3610067;39;20358;-64
2023/12/26 07:00:47;;;;;;;6.10;1.80;;;;;;;9.52;85.61;100856.50;3607966;39;21371;-64
2023/12/26 07:03:13;;;;;;;7.80;1.67;;;;;;;9.44;85.99;100839.94;3608775;39;20054;-64
2023/12/26 07:05:39;;;;;;;8.55;1.63;;;;;;;9.46;86.41;100854.16;3602555;39;20051;-63
2023/12/26 07:08:05;;;;;;;8.27;1.38;;;;;;;9.44;86.45;100865.91;3608128;39;20059;-64
2023/12/26 07:10:31;;;;;;;5.65;1.50;;;;;;;9.26;86.54;100843.66;3603657;39;20078;-64
2023/12/26 07:12:57;;;;;;;7.68;2.15;;;;;;;9.38;86.51;100875.19;3606123;39;20376;-66
2023/12/26 07:15:22;;;;;;;7.85;1.55;;;;;;;9.39;85.78;100895.72;3606776;39;20089;-64
2023/12/26 07:17:48;;;;;;;7.18;1.40;;;;;;;9.37;85.17;100902.97;3605527;39;20784;-63
2023/12/26 07:20:14;;;;;;;7.93;1.52;;;;;;;9.35;84.40;100895.94;3601751;39;20067;-64
2023/12/26 07:22:39;;;;;;;8.65;1.98;;;;;;;9.34;83.87;100904.94;3607970;39;20051;-64
2023/12/26 07:25:05;;;;;;;8.43;1.55;;;;;;;9.30;82.33;100906.94;3604083;39;20051;-64
2023/12/26 07:27:31;;;;;;;7.85;1.42;;;;;;;9.34;82.54;100919.22;3607390;39;20059;-64
2023/12/26 07:29:57;;;;;;;6.30;1.60;;;;;;;9.36;80.80;100930.75;3605948;39;20054;-64
2023/12/26 07:32:23;;;;;;;5.72;1.30;;;;;;;9.38;80.04;100919.91;3605052;39;20055;-64
2023/12/26 07:34:49;;;;;;;8.07;1.45;;;;;;;9.23;80.18;100901.06;3609226;39;20491;-64
2023/12/26 07:37:15;;;;;;;4.70;1.48;;;;;;;9.41;79.61;100925.97;3607829;39;20078;-63
2023/12/26 07:39:40;;;;;;;6.53;1.70;;;;;;;9.40;79.94;100916.22;3606521;39;20500;-64
2023/12/26 07:42:07;;;;;;;9.18;1.75;;;;;;;9.44;80.19;100928.50;3597977;39;20090;-64
2023/12/26 07:44:33;;;;;;;7.60;1.52;;;;;;;9.47;80.12;100927.47;3604034;39;20047;-63
2023/12/26 07:46:59;;;;;;;8.38;1.60;;;;;;;9.48;79.55;100943.50;3605178;39;20055;-64
2023/12/26 07:49:24;;;;;;;7.80;1.48;;;;;;;9.50;79.52;100952.31;3608146;39;20124;-64
2023/12/26 07:51:50;;;;;;;14.23;2.00;;;;;;;9.50;79.35;100951.44;3605953;39;20075;-64
2023/12/26 07:54:16;;;;;;;6.47;1.52;;;;;;;9.51;79.03;100966.59;3606286;39;20082;-63
2023/12/26 07:56:41;;;;;;;9.85;2.40;;;;;;;9.36;78.92;100946.84;3608518;39;20332;-64
2023/12/26 07:59:07;;;;;;;10.15;2.10;;;;;;;9.47;78.90;100979.31;3606434;39;20047;-64
2023/12/26 08:01:33;;;;;;;8.27;1.88;;;;;;;9.36;78.79;100957.59;3605876;39;20094;-64
2023/12/26 08:03:58;;;;;;;12.13;2.50;;;;;;;9.41;78.94;100986.81;3606878;39;20062;-64
2023/12/26 08:06:24;;;;;;;9.70;1.98;;;;;;;9.38;79.25;100987.00;3606037;39;20051;-64
2023/12/26 08:08:51;;;;;;;7.78;1.58;;;;;;;9.33;79.11;100987.25;3605851;39;20053;-64
2023/12/26 08:11:24;;;;;;;14.00;2.00;;;;;;;9.34;78.83;100991.66;3632497;39;20121;-64
2023/12/26 08:13:50;;;;;;;7.38;1.63;;;;;;;9.13;79.86;100963.31;3615471;39;20075;-64
2023/12/26 08:16:16;;;;;;;9.32;1.75;;;;;;;9.18;80.32;100975.53;3616337;39;20055;-64
2023/12/26 08:18:41;;;;;;;9.93;2.28;;;;;;;9.27;80.53;100995.63;3617373;39;20054;-64
2023/12/26 08:21:07;;;;;;;9.55;1.95;;;;;;;9.26;80.86;101007.28;3614849;39;20094;-64
2023/12/26 08:23:35;;;;;;;7.70;1.85;;;;;;;9.26;81.30;101009.97;3615571;39;20091;-64
2023/12/26 08:26:06;;;;;;;10.05;1.75;;;;;;;9.25;81.97;101008.25;3615795;39;20069;-64
2023/12/26 08:28:32;;;;;;;11.10;1.90;;;;;;;9.25;82.66;101006.44;3617325;39;20059;-64
2023/12/26 08:30:58;;;;;;;8.85;1.60;;;;;;;9.24;83.24;101020.81;3618404;39;20047;-64
2023/12/26 08:33:24;;;;;;;10.05;2.03;;;;;;;9.27;82.94;101030.50;3615152;39;20091;-64
2023/12/26 08:35:50;;;;;;;7.72;1.95;;;;;;;9.26;83.68;101036.78;3613679;39;20407;-64
2023/12/26 08:38:16;;;;;;;6.57;1.63;;;;;;;9.25;84.32;101035.94;3621383;39;20118;-64
2023/12/26 08:40:42;;;;;;;9.23;2.03;;;;;;;9.24;84.03;101047.63;3619346;39;20055;-64
2023/12/26 08:43:08;;;;;;;8.18;1.60;;;;;;;9.25;83.99;101051.16;3619695;39;20057;-64
2023/12/26 08:45:34;;;;;;;8.05;1.88;;;;;;;9.25;84.08;101056.53;3615099;39;20061;-65
2023/12/26 08:48:00;;;;;;;6.95;1.75;;;;;;;9.22;83.97;101059.38;3613666;39;20047;-65
2023/12/26 08:50:26;;;;;;;7.68;1.88;;;;;;;9.23;84.36;101072.72;3614336;39;20487;-65
2023/12/26 08:52:52;;;;;;;11.85;2.08;;;;;;;9.20;84.16;101074.69;3617276;39;20070;-66
2023/12/26 08:55:17;;;;;;;12.10;2.33;;;;;;;9.21;84.08;101079.97;3615081;39;20059;-65
2023/12/26 08:57:43;;;;;;;12.05;2.30;;;;;;;9.24;84.38;101084.31;3615498;39;20054;-65
2023/12/26 09:00:12;;;;;;;11.95;2.42;;;;;;;9.24;84.20;101084.31;3619932;39;20386;-63
2023/12/26 09:02:37;;;;;;;7.45;1.65;;;;;;;9.29;83.67;101076.88;3614797;39;20053;-64
2023/12/26 09:05:04;;;;;;;9.82;1.83;;;;;;;9.31;83.56;101085.72;3614625;39;20043;-64
2023/12/26 09:07:29;;;;;;;11.80;1.80;;;;;;;9.35;83.44;101094.47;3615770;39;20329;-64
2023/12/26 09:09:55;;;;;;;11.18;2.58;;;;;;;9.42;83.76;101088.72;3613656;39;20068;-64
2023/12/26 09:12:21;;;;;;;9.60;2.03;;;;;;;9.52;83.04;101099.84;3614231;39;20059;-64
2023/12/26 09:14:47;;;;;;;10.20;2.40;;;;;;;9.64;81.58;101114.38;3619592;39;20055;-64
2023/12/26 09:17:13;;;;;;;12.10;2.40;;;;;;;9.74;80.54;101112.97;3614520;39;20131;-64
2023/12/26 09:19:40;;;;;;;13.75;2.38;;;;;;;9.78;79.49;101101.13;3614717;39;20058;-64
2023/12/26 09:22:05;;;;;;;11.23;2.00;;;;;;;9.93;78.57;101119.09;3608980;39;20059;-64
2023/12/26 09:24:31;;;;;;;9.60;2.05;;;;;;;10.00;78.05;101120.47;3606724;39;20047;-64
2023/12/26 09:26:57;;;;;;;8.93;1.92;;;;;;;10.04;77.22;101123.00;3607519;39;20101;-64
2023/12/26 09:29:22;;;;;;;13.32;2.63;;;;;;;10.04;77.49;101123.00;3609668;39;20065;-64
2023/12/26 09:31:48;;;;;;;11.60;2.40;;;;;;;10.00;76.93;101123.16;3606923;39;20094;-64
2023/12/26 09:34:13;;;;;;;8.55;2.10;;;;;;;10.00;77.45;101133.91;3606125;39;20071;-64
2023/12/26 09:36:39;;;;;;;7.75;2.13;;;;;;;9.97;77.32;101150.19;3606859;39;20058;-64
2023/12/26 09:39:05;;;;;;;9.50;2.00;;;;;;;9.96;76.99;101145.78;3610794;39;20062;-65
2023/12/26 09:41:31;;;;;;;9.70;2.28;;;;;;;9.78;77.26;101130.66;3609794;39;20049;-64
2023/12/26 09:43:57;;;;;;;13.57;2.10;;;;;;;9.91;77.21;101169.31;3610348;39;20063;-64
2023/12/26 09:46:23;;;;;;;10.77;2.20;;;;;;;9.87;77.00;101175.78;3606288;39;20384;-64
2023/12/26 09:48:49;;;;;;;10.43;2.45;;;;;;;9.84;77.07;101181.34;3605597;39;20055;-64
2023/12/26 09:51:26;;;;;;;10.00;2.17;;;;;;;9.77;77.36;101180.78;3606483;39;20055;-64
2023/12/26 09:53:59;;;;;;;11.55;2.33;;;;;;;9.73;78.30;101186.38;3606072;39;20162;-64
2023/12/26 09:56:28;;;;;;;11.07;2.40;;;;;;;9.69;78.77;101182.13;3610369;39;20044;-64
2023/12/26 09:58:59;;;;;;;13.13;2.63;;;;;;;9.63;78.96;101193.19;3606825;39;20645;-64
2023/12/26 10:01:25;;;;;;;10.35;1.95;;;;;;;9.59;78.31;101197.84;3608616;39;20127;-64
2023/12/26 10:03:52;;;;;;;12.98;2.58;;;;;;;9.57;79.12;101204.25;3605768;39;20364;-64
2023/12/26 10:06:18;;;;;;;10.40;2.28;;;;;;;9.58;79.38;101211.34;3605319;39;20097;-64
2023/12/26 10:08:44;;;;;;;11.50;2.20;;;;;;;9.59;79.01;101213.09;3608471;39;20376;-64
2023/12/26 10:11:13;;;;;;;11.55;1.95;;;;;;;9.62;79.01;101219.16;3607263;39;20059;-64
2023/12/26 10:13:49;;;;;;;10.70;2.17;;;;;;;9.73;80.07;101216.78;3608099;39;20061;-64
2023/12/26 10:16:16;;;;;;;11.38;2.63;;;;;;;9.93;78.76;101212.22;3609819;39;20095;-64
2023/12/26 10:18:41;;;;;;;10.73;2.38;;;;;;;10.12;78.54;101215.66;3604680;39;20051;-64
2023/12/26 10:21:07;;;;;;;13.02;2.00;;;;;;;10.22;77.03;101214.19;3605011;39;20059;-66
2023/12/26 10:23:34;;;;;;;9.30;2.55;;;;;;;10.52;76.18;101221.53;3605517;39;20423;-66
2023/12/26 10:26:02;;;;;;;12.90;2.28;;;;;;;10.70;74.97;101241.19;3610841;39;20569;-66
2023/12/26 10:28:28;;;;;;;10.45;2.28;;;;;;;10.83;74.20;101244.91;3606611;39;20055;-66
2023/12/26 10:30:55;;;;;;;11.80;2.75;;;;;;;10.97;73.64;101249.50;3605247;39;20089;-66
2023/12/26 10:33:27;;;;;;;12.38;2.25;;;;;;;11.10;72.49;101255.03;3604175;39;20051;-67
2023/12/26 10:36:06;;;;;;;11.48;2.17;;;;;;;11.22;72.92;101246.28;3605147;39;20071;-66
2023/12/26 10:38:33;;;;;;;15.07;2.85;;;;;;;11.36;71.88;101246.34;3610903;39;20060;-66
2023/12/26 10:41:10;;;;;;;9.73;2.35;;;;;;;11.51;71.29;101247.28;3605352;39;20069;-66
2023/12/26 10:43:43;;;;;;;10.93;2.47;;;;;;;11.58;70.11;101234.31;3605092;39;20054;-66
2023/12/26 10:46:09;;;;;;;10.88;3.25;;;;;;;11.66;69.88;101237.41;3607935;39;20043;-66
2023/12/26 10:48:36;;;;;;;9.38;2.30;;;;;;;11.74;69.10;101254.00;3604695;39;20051;-66
2023/12/26 10:51:04;;;;;;;13.15;3.92;;;;;;;11.77;69.03;101243.03;3604201;39;20128;-66
2023/12/26 10:53:52;;;;;;;9.48;1.98;;;;;;;11.87;68.39;101237.13;3606529;39;20043;-66
2023/12/26 10:56:20;;;;;;;5.22;1.55;;;;;;;11.99;68.55;101233.69;3612850;39;20054;-66
2023/12/26 10:58:47;;;;;;;12.00;2.28;;;;;;;12.10;67.69;101241.09;3608386;39;20091;-66
2023/12/26 13:51:42;;;;;;;11.38;2.20;;;;;;;10.88;74.00;101420.34;3613225;39;20046;-67
2023/12/26 13:54:08;;;;;;;9.98;2.10;;;;;;;10.86;74.24;101418.69;3610098;39;20058;-67
2023/12/26 13:56:33;;;;;;;9.93;2.58;;;;;;;10.85;74.82;101414.28;3617480;39;20047;-67
2023/12/26 13:59:55;;;;;;;13.35;2.40;;;;;;;10.82;74.50;101420.69;3614251;39;20054;-67
2023/12/26 14:03:17;;;;;;;14.23;2.40;;;;;;;10.81;74.65;101434.19;3610722;39;20039;-67
2023/12/26 14:06:39;;;;;;;9.98;2.53;;;;;;;10.76;74.65;101437.13;3605046;39;20059;-67
2023/12/26 14:10:01;;;;;;;13.93;4.18;;;;;;;10.74;75.71;101436.34;3607520;39;20051;-67
2023/12/26 14:13:23;;;;;;;15.27;4.47;;;;;;;10.69;73.57;101433.03;3611465;39;20054;-66